createdAt,value
2023-01-21T00:02:36.583Z,38.10
2023-01-21T00:08:50.860Z,39.00
2023-01-21T00:15:01.385Z,37.70
2023-01-21T00:21:15.116Z,37.60
2023-01-21T00:27:26.481Z,37.70
2023-01-21T00:33:36.518Z,37.80
2023-01-21T00:39:51.057Z,38.80
2023-01-21T00:46:09.021Z,38.80
2023-01-21T00:52:19.025Z,37.80
2023-01-21T00:58:27.267Z,37.80
2023-01-21T01:04:39.013Z,38.00
2023-01-21T01:10:50.284Z,38.90
2023-01-21T01:16:58.799Z,39.50
2023-01-21T01:23:08.657Z,38.30
2023-01-21T01:29:19.176Z,38.10
2023-01-21T01:35:28.889Z,38.30
2023-01-21T01:41:40.280Z,38.50
2023-01-21T01:47:56.216Z,38.60
2023-01-21T01:54:05.346Z,38.60
2023-01-21T02:00:20.235Z,38.70
2023-01-21T02:06:31.857Z,38.60
2023-01-21T02:12:39.293Z,38.50
2023-01-21T02:18:49.941Z,38.40
2023-01-21T02:25:37.331Z,38.40
2023-01-21T02:32:16.769Z,38.40
2023-01-21T02:38:28.853Z,38.70
2023-01-21T02:44:41.618Z,38.90
2023-01-21T02:50:55.133Z,39.20
2023-01-21T02:57:03.308Z,39.20
2023-01-21T03:03:54.212Z,39.40
2023-01-21T03:10:07.293Z,39.60
2023-01-21T03:16:39.984Z,39.40
2023-01-21T03:22:50.838Z,39.40
2023-01-21T03:29:02.170Z,39.10
2023-01-21T03:35:18.866Z,39.00
2023-01-21T03:41:34.532Z,39.10
2023-01-21T03:47:43.955Z,38.60
2023-01-21T03:53:57.412Z,38.90
2023-01-21T04:00:07.515Z,38.90
2023-01-21T04:06:16.705Z,39.00
2023-01-21T04:12:30.512Z,39.30
2023-01-21T04:18:39.478Z,39.50
2023-01-21T04:24:49.646Z,39.60
2023-01-21T04:31:00.467Z,39.90
2023-01-21T04:37:10.409Z,39.90
2023-01-21T04:43:21.059Z,40.00
2023-01-21T04:49:35.379Z,40.10
2023-01-21T04:55:45.252Z,40.00
2023-01-21T05:01:56.360Z,39.80
2023-01-21T05:08:03.800Z,39.90
2023-01-21T05:14:18.238Z,39.80
2023-01-21T05:20:27.072Z,39.70
2023-01-21T05:26:36.206Z,39.80
2023-01-21T05:32:46.967Z,39.50
2023-01-21T05:38:55.911Z,39.10
2023-01-21T05:45:06.747Z,39.40
2023-01-21T05:51:16.336Z,39.50
2023-01-21T05:57:27.396Z,39.60
2023-01-21T06:03:38.095Z,39.50
2023-01-21T06:09:50.812Z,39.80
2023-01-21T06:16:03.503Z,39.50
2023-01-21T06:22:12.964Z,39.20
2023-01-21T06:28:20.213Z,39.10
2023-01-21T06:34:29.232Z,39.40
2023-01-21T06:40:36.505Z,39.60
2023-01-21T06:47:00.002Z,39.70
2023-01-21T06:53:03.359Z,39.40
2023-01-21T06:59:12.574Z,39.00
2023-01-21T07:05:24.980Z,39.00
2023-01-21T07:11:38.692Z,39.30
2023-01-21T07:17:50.861Z,39.40
2023-01-21T07:24:00.094Z,39.70
2023-01-21T07:36:23.396Z,38.90
2023-01-21T07:42:33.291Z,39.10
2023-01-21T07:48:47.809Z,39.10
2023-01-21T07:54:59.196Z,39.30
2023-01-21T08:01:12.009Z,39.50
2023-01-21T08:07:23.006Z,39.30
2023-01-21T08:13:34.616Z,38.80
2023-01-21T08:19:46.453Z,39.00
2023-01-21T08:25:57.388Z,39.20
2023-01-21T08:32:10.170Z,39.30
2023-01-21T08:38:23.850Z,39.50
2023-01-21T08:44:31.946Z,39.20
2023-01-21T08:50:41.779Z,38.80
2023-01-21T08:56:52.473Z,38.90
2023-01-21T09:03:06.331Z,39.20
2023-01-21T09:09:17.353Z,39.40
2023-01-21T09:15:28.713Z,39.00
2023-01-21T09:21:38.558Z,38.80
2023-01-21T09:27:50.014Z,39.00
2023-01-21T09:34:01.474Z,39.10
2023-01-21T09:40:12.152Z,39.30
2023-01-21T09:46:24.734Z,39.00
2023-01-21T09:52:35.792Z,38.70
2023-01-21T09:58:46.054Z,38.90
2023-01-21T10:04:57.098Z,39.10
2023-01-21T10:11:12.826Z,39.40
2023-01-21T10:17:24.875Z,39.20
2023-01-21T10:23:36.398Z,38.80
2023-01-21T10:29:45.164Z,38.60
2023-01-21T10:36:17.275Z,38.90
2023-01-21T10:42:50.518Z,39.00
2023-01-21T10:48:59.226Z,39.10
2023-01-21T10:55:16.651Z,39.10
2023-01-21T11:01:31.896Z,38.80
2023-01-21T11:07:43.869Z,38.70
2023-01-21T11:13:54.888Z,38.90
2023-01-21T11:20:11.830Z,39.10
2023-01-21T11:26:23.574Z,39.30
2023-01-21T11:32:33.283Z,38.90
2023-01-21T11:38:43.645Z,38.60
2023-01-21T11:44:58.711Z,38.60
2023-01-21T11:51:17.341Z,38.80
2023-01-21T11:57:35.121Z,39.10
2023-01-21T12:03:46.874Z,39.10
2023-01-21T12:10:00.797Z,38.90
2023-01-21T12:16:38.886Z,38.50
2023-01-21T12:22:58.179Z,38.70
2023-01-21T12:29:35.821Z,38.90
2023-01-21T12:35:45.319Z,39.00
2023-01-21T12:41:57.495Z,39.50
2023-01-21T12:48:08.763Z,39.90
2023-01-21T12:54:23.375Z,39.30
2023-01-21T13:00:32.377Z,39.10
2023-01-21T13:06:53.669Z,39.60
2023-01-21T13:12:55.879Z,38.40
2023-01-21T13:19:06.833Z,38.70
2023-01-21T13:25:25.528Z,40.00
2023-01-21T13:31:39.948Z,40.30
2023-01-21T13:37:53.179Z,39.20
2023-01-21T13:44:10.079Z,39.10
2023-01-21T13:50:35.975Z,39.10
2023-01-21T13:56:53.205Z,39.60
2023-01-21T14:03:08.942Z,39.70
2023-01-21T14:09:24.582Z,38.60
2023-01-21T14:15:42.765Z,38.20
2023-01-21T14:22:02.801Z,38.60
2023-01-21T14:28:16.623Z,39.10
2023-01-21T14:34:26.610Z,38.90
2023-01-21T14:40:34.831Z,38.30
2023-01-21T14:46:46.303Z,38.20
2023-01-21T14:52:53.693Z,38.20
2023-01-21T14:59:06.408Z,38.90
2023-01-21T15:05:26.170Z,38.40
2023-01-21T15:11:40.120Z,38.10
2023-01-21T15:18:06.337Z,38.00
2023-01-21T15:24:31.012Z,38.70
2023-01-21T15:30:57.932Z,38.60
2023-01-21T15:36:57.175Z,38.10
2023-01-21T15:43:09.296Z,38.10
2023-01-21T15:56:15.828Z,38.10
2023-01-21T16:02:27.364Z,38.60
2023-01-21T16:09:03.673Z,38.40
2023-01-21T16:15:14.912Z,37.90
2023-01-21T16:21:25.583Z,37.80
2023-01-21T16:27:36.718Z,37.90
2023-01-21T16:33:47.833Z,38.40
2023-01-21T16:40:00.502Z,37.90
2023-01-21T16:46:10.145Z,37.70
2023-01-21T16:52:20.546Z,37.70
2023-01-21T16:58:32.027Z,38.40
2023-01-21T17:04:41.791Z,38.20
2023-01-21T17:11:00.563Z,37.90
2023-01-21T17:17:10.303Z,37.50
2023-01-21T17:23:21.243Z,37.40
2023-01-21T17:29:32.783Z,37.60
2023-01-21T17:35:41.912Z,38.20
2023-01-21T17:41:52.027Z,38.10
2023-01-21T17:48:09.527Z,37.40
2023-01-21T17:54:21.386Z,37.40
2023-01-21T18:00:43.409Z,37.90
2023-01-21T18:06:54.598Z,37.90
2023-01-21T18:13:04.571Z,37.40
2023-01-21T18:19:16.364Z,37.30
2023-01-21T18:25:27.074Z,37.40
2023-01-21T18:31:37.295Z,38.00
2023-01-21T18:37:45.078Z,37.80
2023-01-21T18:43:55.049Z,37.30
2023-01-21T18:50:06.493Z,37.20
2023-01-21T18:56:18.904Z,37.30
2023-01-21T19:02:32.552Z,37.40
2023-01-21T19:08:45.086Z,38.00
2023-01-21T19:14:52.746Z,37.90
2023-01-21T19:21:02.655Z,37.50
2023-01-21T19:27:13.299Z,37.10
2023-01-21T19:33:24.244Z,37.10
2023-01-21T19:39:34.968Z,37.50
2023-01-21T19:45:46.126Z,37.60
2023-01-21T19:51:58.726Z,37.10
2023-01-21T19:58:09.475Z,36.90
2023-01-21T20:04:19.521Z,37.00
2023-01-21T20:10:29.622Z,37.60
2023-01-21T20:16:38.370Z,37.30
2023-01-21T20:22:48.383Z,36.90
2023-01-21T20:28:57.997Z,37.00
2023-01-21T20:35:08.682Z,37.10
2023-01-21T20:41:17.796Z,37.60
2023-01-21T20:47:37.768Z,37.40
2023-01-21T20:53:36.136Z,37.20
2023-01-21T20:59:48.927Z,36.80
2023-01-21T21:05:57.526Z,36.80
2023-01-21T21:12:09.031Z,37.00
2023-01-21T21:18:20.355Z,37.60
2023-01-21T21:24:30.673Z,37.30
2023-01-21T21:30:39.735Z,37.00
2023-01-21T21:36:48.691Z,36.70
2023-01-21T21:43:16.620Z,36.90
2023-01-21T21:49:24.748Z,37.00
2023-01-21T21:55:34.614Z,37.40
2023-01-21T22:01:47.623Z,37.00
2023-01-21T22:07:58.528Z,36.70
2023-01-21T22:14:08.956Z,36.90
2023-01-21T22:20:19.360Z,37.40
2023-01-21T22:26:28.689Z,37.30
2023-01-21T22:32:41.146Z,36.80
2023-01-21T22:38:51.734Z,36.70
2023-01-21T22:45:02.815Z,37.10
2023-01-21T22:51:12.710Z,37.20
2023-01-21T22:57:20.817Z,36.90
2023-01-21T23:03:32.864Z,36.60
2023-01-21T23:09:45.301Z,36.70
2023-01-21T23:15:53.034Z,36.90
2023-01-21T23:22:02.974Z,37.30
2023-01-21T23:28:13.757Z,37.10
2023-01-21T23:34:23.348Z,36.80
2023-01-21T23:40:33.389Z,36.50
2023-01-21T23:46:44.891Z,36.90
2023-01-21T23:52:52.511Z,36.80
2023-01-21T23:59:02.736Z,37.00
